Time;durP1;ratioP1;P1;durP2;ratioP2;P2;SDS_P1;SDS_P2;PMS_P1;PMS_P2;Temp;Humidity;BMP_temperature;BMP_pressure;BME280_temperature;BME280_humidity;BME280_pressure;Samples;Min_cycle;Max_cycle;Signal;HPM_P1;HPM_P2
2021/12/29 00:02:07;;;;;;;45.00;28.90;;;;;;;1.21;89.80;99600.64;1405756;89;21395;-87
2021/12/29 00:04:34;;;;;;;44.37;27.10;;;;;;;1.23;89.79;99601.34;1406792;87;21532;-87
2021/12/29 00:07:02;;;;;;;34.30;24.63;;;;;;;1.24;89.90;99593.08;1412644;86;22947;-88
2021/12/29 00:09:32;;;;;;;43.03;25.20;;;;;;;1.21;90.17;99595.88;1426347;86;21456;-87
2021/12/29 00:11:59;;;;;;;37.43;25.13;;;;;;;1.22;90.08;99598.38;1427358;86;22618;-86
2021/12/29 00:14:27;;;;;;;36.00;22.63;;;;;;;1.21;90.22;99593.27;1426367;85;21642;-86
2021/12/29 00:16:56;;;;;;;38.57;23.43;;;;;;;1.20;90.32;99596.34;1426182;86;21471;-86
2021/12/29 00:19:23;;;;;;;36.33;23.20;;;;;;;1.19;90.48;99589.48;1426544;85;21659;-87
2021/12/29 00:21:51;;;;;;;36.83;24.23;;;;;;;1.17;90.76;99585.31;1404973;87;21619;-86
2021/12/29 00:24:19;;;;;;;32.70;20.70;;;;;;;1.14;90.88;99598.09;1426096;85;21537;-86
2021/12/29 00:26:46;;;;;;;32.73;20.93;;;;;;;1.18;90.88;99598.70;1426774;86;22661;-86
2021/12/29 00:29:14;;;;;;;31.97;22.03;;;;;;;1.20;91.20;99594.22;1425932;86;21780;-86
2021/12/29 00:31:43;;;;;;;32.47;22.67;;;;;;;1.17;91.25;99593.95;1428711;85;21666;-86
2021/12/29 00:34:10;;;;;;;34.10;22.03;;;;;;;1.17;91.33;99592.66;1428534;85;21366;-85
2021/12/29 00:36:37;;;;;;;34.50;21.57;;;;;;;1.14;92.04;99590.27;1426110;86;23197;-87
2021/12/29 00:39:04;;;;;;;31.97;21.60;;;;;;;1.13;92.01;99591.22;1407596;87;21739;-86
2021/12/29 00:41:32;;;;;;;31.10;19.63;;;;;;;1.13;92.54;99591.22;1415707;86;21410;-86
2021/12/29 00:43:59;;;;;;;31.57;20.80;;;;;;;1.12;92.68;99587.78;1416109;86;21660;-86
2021/12/29 00:46:26;;;;;;;31.53;20.73;;;;;;;1.10;93.19;99591.44;1416286;86;22074;-85
2021/12/29 00:48:53;;;;;;;32.87;20.73;;;;;;;1.06;93.93;99582.98;1415858;86;22537;-85
2021/12/29 00:51:22;;;;;;;34.47;20.10;;;;;;;1.06;93.85;99581.67;1416285;85;22950;-85
2021/12/29 00:53:50;;;;;;;28.90;19.90;;;;;;;1.06;94.19;99580.38;1416624;86;21423;-86
2021/12/29 00:56:17;;;;;;;29.47;18.70;;;;;;;1.05;94.03;99577.89;1416990;86;21560;-85
2021/12/29 00:58:45;;;;;;;30.37;19.03;;;;;;;1.05;93.98;99577.89;1415965;86;21649;-84
2021/12/29 01:01:13;;;;;;;29.27;20.80;;;;;;;1.09;93.85;99578.02;1396963;88;21484;-84
2021/12/29 01:03:41;;;;;;;27.30;19.10;;;;;;;1.11;94.15;99578.28;1417521;86;21329;-84
2021/12/29 01:06:09;;;;;;;24.47;16.90;;;;;;;1.14;94.21;99578.54;1388080;88;21387;-85
2021/12/29 01:08:36;;;;;;;28.73;19.23;;;;;;;1.15;94.12;99573.68;1388530;88;21574;-84
2021/12/29 01:11:04;;;;;;;23.73;16.63;;;;;;;1.15;94.17;99569.77;1386920;89;21533;-84
2021/12/29 01:13:41;;;;;;;25.53;18.27;;;;;;;1.16;94.17;99566.72;1407436;87;21425;-84
2021/12/29 01:18:38;;;;;;;26.17;18.33;;;;;;;1.19;94.13;99558.67;1388019;88;20321;-83
2021/12/29 01:21:07;;;;;;;24.63;18.33;;;;;;;1.20;93.97;99548.12;1408166;87;21503;-84
2021/12/29 01:23:34;;;;;;;24.37;18.07;;;;;;;1.20;94.21;99552.03;1407294;87;21431;-84
2021/12/29 01:26:12;;;;;;;25.67;17.80;;;;;;;1.21;94.04;99549.81;1407772;87;21700;-84
2021/12/29 01:28:44;;;;;;;24.27;16.97;;;;;;;1.24;93.78;99546.98;1404728;87;21889;-83
2021/12/29 01:31:12;;;;;;;23.18;16.93;;;;;;;1.31;93.77;99549.97;1408142;87;21418;-84
2021/12/29 01:33:39;;;;;;;23.73;17.43;;;;;;;1.35;93.59;99543.14;1407855;87;21344;-84
2021/12/29 01:36:07;;;;;;;25.00;16.50;;;;;;;1.38;93.75;99539.92;1389578;88;21559;-86
2021/12/29 01:38:34;;;;;;;25.47;18.17;;;;;;;1.39;93.60;99542.91;1410793;87;21616;-86
2021/12/29 01:41:02;;;;;;;23.33;17.20;;;;;;;1.42;93.61;99537.00;1410275;87;21593;-85
2021/12/29 01:43:32;;;;;;;25.93;18.03;;;;;;;1.43;93.61;99536.52;1410063;87;21291;-85
2021/12/29 01:45:59;;;;;;;24.37;16.03;;;;;;;1.42;93.59;99534.87;1410407;87;21507;-83
2021/12/29 01:48:26;;;;;;;24.60;17.27;;;;;;;1.43;93.54;99525.61;1408371;87;21359;-85
2021/12/29 01:50:56;;;;;;;25.33;17.33;;;;;;;1.44;93.54;99526.44;1408587;87;21522;-85
2021/12/29 01:53:27;;;;;;;24.20;17.13;;;;;;;1.45;93.63;99525.52;1408859;87;21541;-86
2021/12/29 01:55:52;;;;;;;20.20;14.43;;;;;;;1.45;93.72;99521.61;1408286;87;21618;-85
2021/12/29 01:58:22;;;;;;;20.67;15.00;;;;;;;1.45;93.74;99525.52;1408263;87;21449;-86
2021/12/29 02:00:52;;;;;;;22.70;17.17;;;;;;;1.47;93.52;99521.86;1408656;87;21558;-85
2021/12/29 02:03:21;;;;;;;22.95;16.15;;;;;;;1.48;93.54;99519.59;1408430;87;21646;-85
2021/12/29 02:05:48;;;;;;;21.33;12.93;;;;;;;1.46;93.82;99514.95;1427553;86;21344;-85
2021/12/29 02:08:22;;;;;;;22.57;16.37;;;;;;;1.48;93.69;99513.56;1427523;86;21446;-86
2021/12/29 02:10:47;;;;;;;22.93;15.23;;;;;;;1.47;93.58;99515.81;1427348;86;21728;-86
2021/12/29 02:13:15;;;;;;;22.23;15.57;;;;;;;1.48;93.81;99509.64;1427232;86;21564;-85
2021/12/29 02:15:42;;;;;;;24.93;16.77;;;;;;;1.48;93.77;99507.86;1427501;86;21501;-85
2021/12/29 02:18:16;;;;;;;21.47;14.87;;;;;;;1.50;93.64;99503.38;1431915;86;21526;-84
2021/12/29 02:20:47;;;;;;;24.23;17.13;;;;;;;1.52;93.69;99507.16;1424518;85;21551;-85
2021/12/29 02:23:21;;;;;;;23.07;16.43;;;;;;;1.55;93.62;99509.09;1437489;85;21531;-85
2021/12/29 02:25:55;;;;;;;20.23;14.27;;;;;;;1.61;93.59;99510.88;1428974;85;21489;-85
2021/12/29 02:28:34;;;;;;;19.23;14.23;;;;;;;1.59;93.43;99499.27;1422372;86;21321;-86
2021/12/29 02:31:03;;;;;;;22.50;16.17;;;;;;;1.63;93.56;99495.95;1423059;86;21692;-84
2021/12/29 02:33:35;;;;;;;21.27;15.57;;;;;;;1.60;93.65;99496.17;1422434;86;21541;-85
2021/12/29 02:36:05;;;;;;;23.10;14.50;;;;;;;1.59;93.46;99494.05;1423574;86;21588;-84
2021/12/29 02:38:36;;;;;;;21.33;15.50;;;;;;;1.59;93.35;99494.05;1427897;87;21480;-84
2021/12/29 02:41:07;;;;;;;22.80;16.12;;;;;;;1.60;93.35;99490.95;1409489;86;21362;-84
2021/12/29 02:43:40;;;;;;;21.13;15.40;;;;;;;1.59;93.29;99494.05;1427499;86;21456;-84
2021/12/29 02:46:12;;;;;;;20.90;14.97;;;;;;;1.59;93.17;99484.92;1426532;86;22438;-85
2021/12/29 02:48:54;;;;;;;22.27;15.63;;;;;;;1.59;93.11;99487.52;1427647;86;21427;-86
2021/12/29 02:51:17;;;;;;;20.30;14.57;;;;;;;1.58;93.19;99484.09;1424654;86;21510;-86
2021/12/29 02:53:50;;;;;;;21.73;15.57;;;;;;;1.62;93.16;99484.69;1427634;86;21518;-86
2021/12/29 02:56:19;;;;;;;19.57;14.30;;;;;;;1.65;93.05;99482.33;1427214;86;21467;-85
2021/12/29 02:58:46;;;;;;;19.60;13.67;;;;;;;1.73;93.23;99484.73;1426965;86;21652;-85
2021/12/29 03:01:15;;;;;;;22.37;15.20;;;;;;;1.73;93.00;99473.47;1426841;86;21644;-84
2021/12/29 03:03:43;;;;;;;21.43;15.10;;;;;;;1.71;92.81;99472.26;1427335;86;21439;-85
2021/12/29 03:06:11;;;;;;;23.50;15.90;;;;;;;1.70;92.71;99477.61;1427293;86;21555;-85
2021/12/29 03:08:40;;;;;;;21.33;15.33;;;;;;;1.68;92.64;99471.19;1428423;86;21489;-85
2021/12/29 03:11:08;;;;;;;20.70;14.97;;;;;;;1.65;92.69;99467.50;1426891;86;21446;-85
2021/12/29 03:13:42;;;;;;;19.00;14.47;;;;;;;1.65;92.78;99466.20;1438520;86;21691;-86
2021/12/29 03:16:10;;;;;;;20.30;15.10;;;;;;;1.63;92.93;99458.95;1426823;87;21504;-85
2021/12/29 03:18:41;;;;;;;18.63;14.43;;;;;;;1.61;93.02;99460.84;1426826;86;21703;-85
2021/12/29 03:21:11;;;;;;;20.02;14.20;;;;;;;1.61;92.83;99462.62;1427930;86;21504;-85
2021/12/29 03:23:39;;;;;;;19.77;14.40;;;;;;;1.62;92.77;99463.00;1426953;86;22193;-84
2021/12/29 03:26:09;;;;;;;19.47;15.17;;;;;;;1.58;93.19;99462.37;1427322;86;22356;-85
2021/12/29 03:28:37;;;;;;;16.07;11.45;;;;;;;1.58;93.05;99459.31;1427114;86;21525;-85
2021/12/29 03:31:05;;;;;;;21.97;14.77;;;;;;;1.62;93.11;99459.09;1423124;86;21403;-84
2021/12/29 03:33:33;;;;;;;18.17;14.10;;;;;;;1.66;93.11;99456.11;1419539;86;21535;-85
2021/12/29 03:36:04;;;;;;;20.20;14.67;;;;;;;1.69;92.95;99459.80;1413442;86;21577;-85
2021/12/29 03:38:37;;;;;;;18.92;13.85;;;;;;;1.71;93.00;99455.78;1407172;86;21626;-84
2021/12/29 03:41:11;;;;;;;19.50;13.03;;;;;;;1.71;92.91;99442.27;1405931;86;21323;-84
2021/12/29 03:43:41;;;;;;;18.47;14.13;;;;;;;1.68;93.08;99438.58;1405956;86;21647;-84
2021/12/29 03:46:10;;;;;;;18.27;13.97;;;;;;;1.64;93.03;99437.61;1406665;86;21526;-84
2021/12/29 03:48:41;;;;;;;16.83;12.70;;;;;;;1.62;93.02;99437.73;1406754;87;21404;-84
2021/12/29 03:51:14;;;;;;;16.40;12.43;;;;;;;1.61;93.34;99436.05;1408588;86;21609;-84
2021/12/29 03:53:41;;;;;;;16.30;12.20;;;;;;;1.62;93.27;99439.52;1406022;87;21538;-84
2021/12/29 03:56:09;;;;;;;19.40;13.73;;;;;;;1.60;93.23;99444.84;1406075;86;21432;-85
2021/12/29 03:58:39;;;;;;;18.67;13.67;;;;;;;1.59;93.36;99441.88;1407144;87;21548;-84
2021/12/29 04:01:10;;;;;;;21.57;13.43;;;;;;;1.60;93.38;99442.23;1406006;86;21642;-84
2021/12/29 04:03:38;;;;;;;20.08;13.58;;;;;;;1.63;93.40;99443.30;1406610;86;21614;-84
2021/12/29 04:06:05;;;;;;;15.67;12.43;;;;;;;1.65;93.39;99442.72;1406560;86;21219;-84
2021/12/29 04:08:32;;;;;;;17.13;13.20;;;;;;;1.67;93.34;99438.68;1406732;86;21520;-85
2021/12/29 04:11:00;;;;;;;19.13;13.17;;;;;;;1.69;93.37;99436.31;1406511;86;21599;-85
2021/12/29 04:13:27;;;;;;;18.10;12.87;;;;;;;1.69;93.21;99434.19;1406744;86;21518;-84
2021/12/29 04:15:54;;;;;;;22.20;14.37;;;;;;;1.69;93.28;99431.58;1406932;86;21534;-85
2021/12/29 04:18:27;;;;;;;17.30;13.03;;;;;;;1.67;93.30;99426.49;1406028;87;21462;-86
2021/12/29 04:20:58;;;;;;;21.73;12.53;;;;;;;1.67;93.21;99426.94;1406410;86;21618;-85
2021/12/29 04:23:33;;;;;;;18.32;13.78;;;;;;;1.63;93.47;99431.56;1406990;86;21601;-85
2021/12/29 04:26:04;;;;;;;17.70;13.20;;;;;;;1.59;93.65;99422.32;1406227;86;21248;-84
2021/12/29 04:28:32;;;;;;;16.73;13.50;;;;;;;1.62;93.78;99433.00;1406438;87;22517;-83
2021/12/29 04:31:07;;;;;;;18.13;12.50;;;;;;;1.62;93.81;99419.96;1406650;86;21734;-84
2021/12/29 04:33:37;;;;;;;17.90;12.63;;;;;;;1.62;93.77;99420.78;1407047;86;21664;-84
2021/12/29 04:36:06;;;;;;;18.95;13.53;;;;;;;1.61;93.90;99419.10;1408859;85;22650;-84
2021/12/29 04:38:34;;;;;;;15.83;12.63;;;;;;;1.60;93.94;99418.76;1406842;87;21234;-85
2021/12/29 04:41:02;;;;;;;18.03;13.07;;;;;;;1.63;93.99;99413.30;1406677;86;21730;-84
2021/12/29 04:43:30;;;;;;;16.93;12.23;;;;;;;1.65;94.06;99417.13;1405994;87;21614;-84
2021/12/29 04:45:57;;;;;;;16.77;13.00;;;;;;;1.66;93.86;99420.08;1407767;86;21750;-83
2021/12/29 04:48:25;;;;;;;18.07;13.53;;;;;;;1.68;93.92;99419.02;1406247;87;21492;-83
2021/12/29 04:51:04;;;;;;;20.17;14.53;;;;;;;1.69;93.82;99423.75;1392335;88;21541;-84
2021/12/29 04:53:24;;;;;;;17.83;13.27;;;;;;;1.72;93.83;99421.73;1407855;86;21584;-85
2021/12/29 04:55:51;;;;;;;18.43;13.27;;;;;;;1.75;93.79;99429.33;1406124;87;21478;-85
2021/12/29 04:58:21;;;;;;;16.70;11.93;;;;;;;1.78;93.61;99433.04;1406682;86;21693;-86
2021/12/29 05:00:51;;;;;;;18.57;13.87;;;;;;;1.82;93.70;99431.02;1406681;86;21717;-85
2021/12/29 05:03:20;;;;;;;19.50;13.55;;;;;;;1.86;93.69;99427.22;1408318;87;21828;-86
2021/12/29 05:05:54;;;;;;;15.87;12.60;;;;;;;1.94;93.65;99435.78;1406478;87;21374;-86
2021/12/29 05:08:25;;;;;;;22.23;15.23;;;;;;;1.99;93.72;99428.44;1407914;86;21694;-86
2021/12/29 05:11:05;;;;;;;23.33;16.53;;;;;;;1.99;93.20;99431.88;1406437;86;22747;-86
2021/12/29 05:13:37;;;;;;;20.60;15.18;;;;;;;2.03;93.35;99428.07;1406743;86;22717;-86
2021/12/29 05:16:05;;;;;;;18.07;13.47;;;;;;;2.09;93.31;99424.16;1386180;88;21196;-85
2021/12/29 05:18:36;;;;;;;22.43;12.57;;;;;;;2.07;92.85;99427.35;1406620;86;21636;-85
2021/12/29 05:21:10;;;;;;;16.50;12.25;;;;;;;2.05;92.71;99436.28;1406470;86;22995;-85
2021/12/29 05:23:37;;;;;;;18.50;12.77;;;;;;;2.04;92.64;99435.42;1406524;86;21269;-84
2021/12/29 05:26:05;;;;;;;17.57;13.97;;;;;;;2.04;92.67;99435.42;1406931;86;21623;-84
2021/12/29 05:28:32;;;;;;;21.43;14.30;;;;;;;2.03;92.64;99432.47;1406279;86;21475;-85
2021/12/29 05:30:59;;;;;;;16.93;13.13;;;;;;;2.05;92.75;99426.66;1412866;86;22436;-85
2021/12/29 05:33:27;;;;;;;19.50;12.97;;;;;;;2.05;92.90;99434.49;1420331;86;21543;-85
2021/12/29 05:35:54;;;;;;;16.80;12.20;;;;;;;2.03;92.77;99430.68;1422355;84;21604;-85
2021/12/29 05:38:22;;;;;;;16.47;12.43;;;;;;;2.00;92.85;99428.79;1420661;86;22449;-85
2021/12/29 05:40:51;;;;;;;17.37;13.10;;;;;;;1.94;92.97;99422.73;1420098;86;21617;-85
2021/12/29 05:43:19;;;;;;;19.50;13.87;;;;;;;1.89;93.00;99430.08;1420321;86;21563;-86
2021/12/29 05:45:49;;;;;;;19.87;13.43;;;;;;;1.90;93.13;99439.55;1419943;86;21689;-85
2021/12/29 05:48:16;;;;;;;20.67;13.67;;;;;;;1.90;93.13;99439.55;1420500;86;21630;-84
2021/12/29 05:50:43;;;;;;;19.23;13.13;;;;;;;1.85;93.57;99437.31;1421501;86;21742;-84
2021/12/29 05:53:11;;;;;;;19.80;13.87;;;;;;;1.85;93.40;99445.62;1420006;86;21591;-84
2021/12/29 05:55:41;;;;;;;21.50;14.73;;;;;;;1.86;93.31;99453.80;1420842;85;21599;-84
2021/12/29 05:58:15;;;;;;;21.48;15.40;;;;;;;1.87;93.39;99453.70;1420348;86;21714;-83
2021/12/29 06:00:44;;;;;;;17.83;12.93;;;;;;;1.83;93.71;99446.20;1421122;86;21523;-84
2021/12/29 06:03:11;;;;;;;17.23;12.20;;;;;;;1.83;93.49;99455.33;1389272;86;21781;-84
2021/12/29 06:05:39;;;;;;;20.43;13.83;;;;;;;1.84;93.71;99455.68;1420133;86;21586;-83
2021/12/29 06:08:07;;;;;;;25.07;13.77;;;;;;;1.88;93.59;99456.65;1420277;85;21556;-85
2021/12/29 06:10:35;;;;;;;21.00;13.97;;;;;;;1.92;93.71;99462.45;1420250;86;21533;-84
2021/12/29 06:13:02;;;;;;;27.40;13.77;;;;;;;1.90;93.52;99458.67;1420331;86;21692;-85
2021/12/29 06:15:30;;;;;;;19.17;13.77;;;;;;;1.93;93.40;99466.27;1417332;86;21508;-85
2021/12/29 06:17:57;;;;;;;16.93;12.50;;;;;;;1.91;93.42;99464.72;1420988;86;21507;-82
2021/12/29 06:20:26;;;;;;;18.70;12.93;;;;;;;1.91;93.47;99466.03;1420440;86;21763;-83
2021/12/29 06:22:54;;;;;;;18.20;13.67;;;;;;;1.93;93.27;99470.67;1420484;86;21584;-82
2021/12/29 06:25:22;;;;;;;17.60;14.00;;;;;;;1.99;93.42;99475.42;1420654;85;21599;-83
2021/12/29 06:27:51;;;;;;;20.43;14.73;;;;;;;1.98;93.32;99465.91;1419790;86;21503;-81
2021/12/29 06:30:21;;;;;;;22.93;13.67;;;;;;;2.01;93.27;99479.58;1420286;85;21567;-81
2021/12/29 06:32:48;;;;;;;19.87;13.90;;;;;;;2.05;93.25;99481.47;1420604;86;23123;-83
2021/12/29 06:35:16;;;;;;;21.10;15.33;;;;;;;2.05;92.89;99484.09;1419933;86;21244;-82
2021/12/29 06:37:44;;;;;;;21.47;14.53;;;;;;;2.05;92.88;99485.39;1424551;84;21693;-81
2021/12/29 06:40:14;;;;;;;20.33;14.30;;;;;;;1.97;92.73;99487.27;1425420;86;23072;-83
2021/12/29 06:42:43;;;;;;;22.67;15.67;;;;;;;1.91;92.89;99493.42;1425529;86;21561;-82
2021/12/29 06:45:16;;;;;;;25.60;15.10;;;;;;;1.95;93.11;99489.63;1425658;86;21608;-84
2021/12/29 06:47:45;;;;;;;21.77;14.57;;;;;;;2.01;93.20;99491.77;1424725;86;21556;-82
2021/12/29 06:50:13;;;;;;;30.53;20.17;;;;;;;2.04;93.04;99495.45;1426599;86;21867;-83
2021/12/29 06:52:40;;;;;;;24.63;16.93;;;;;;;2.06;92.83;99494.87;1425566;86;21571;-82
2021/12/29 06:55:10;;;;;;;24.20;16.63;;;;;;;2.02;92.34;99499.50;1425753;86;21556;-82
2021/12/29 06:57:43;;;;;;;33.43;20.53;;;;;;;2.02;92.19;99502.11;1426068;86;21652;-82
2021/12/29 07:00:12;;;;;;;27.67;19.37;;;;;;;2.06;92.35;99507.09;1426016;86;21571;-82
2021/12/29 07:02:40;;;;;;;24.93;17.50;;;;;;;2.08;92.34;99507.82;1425916;86;21648;-82
2021/12/29 07:05:18;;;;;;;26.70;17.53;;;;;;;2.12;92.28;99512.67;1425567;86;21603;-81
2021/12/29 07:07:49;;;;;;;27.17;18.93;;;;;;;2.12;92.28;99512.67;1425925;86;21610;-79
2021/12/29 07:10:16;;;;;;;25.10;17.47;;;;;;;2.15;92.13;99503.30;1425729;85;21838;-79
2021/12/29 07:12:47;;;;;;;24.90;17.47;;;;;;;2.10;91.86;99496.32;1425431;86;23199;-79
2021/12/29 07:15:15;;;;;;;18.80;13.22;;;;;;;2.18;92.06;99505.67;1425886;86;21737;-79
2021/12/29 07:17:48;;;;;;;25.03;17.13;;;;;;;2.16;91.78;99505.47;1425642;86;21166;-79
2021/12/29 07:20:16;;;;;;;24.57;17.70;;;;;;;2.13;91.72;99511.75;1425732;86;21643;-79
2021/12/29 07:22:44;;;;;;;29.43;19.27;;;;;;;2.08;91.63;99509.95;1425867;86;21678;-79
2021/12/29 07:25:12;;;;;;;29.70;19.67;;;;;;;2.09;91.79;99510.78;1425818;86;21731;-79
2021/12/29 07:27:39;;;;;;;27.80;19.07;;;;;;;2.14;92.04;99503.44;1425867;86;21745;-82
2021/12/29 07:30:08;;;;;;;27.17;19.77;;;;;;;2.24;91.93;99506.55;1425624;86;21789;-81
2021/12/29 07:32:37;;;;;;;26.30;18.90;;;;;;;2.24;91.93;99506.55;1426914;86;21831;-82
2021/12/29 07:35:05;;;;;;;24.67;18.40;;;;;;;2.29;92.23;99506.17;1426204;86;22646;-82
2021/12/29 07:37:33;;;;;;;29.83;19.63;;;;;;;2.33;92.20;99504.16;1422381;86;23146;-82
2021/12/29 07:40:05;;;;;;;33.50;22.20;;;;;;;2.30;91.94;99504.39;1413164;86;21812;-82
2021/12/29 07:42:29;;;;;;;32.77;20.87;;;;;;;2.26;91.85;99503.32;1412493;86;22063;-83
2021/12/29 07:44:58;;;;;;;29.73;20.50;;;;;;;2.29;91.98;99507.96;1412465;87;21632;-82
2021/12/29 07:47:25;;;;;;;33.33;23.17;;;;;;;2.33;92.17;99517.20;1412286;87;21698;-82
2021/12/29 07:49:52;;;;;;;34.80;23.40;;;;;;;2.33;92.10;99518.06;1412148;87;21664;-83
2021/12/29 07:52:19;;;;;;;31.97;22.10;;;;;;;2.38;92.16;99515.08;1412308;85;21766;-84
2021/12/29 07:54:47;;;;;;;36.77;22.47;;;;;;;2.41;92.13;99519.59;1409985;87;21709;-84
2021/12/29 07:57:14;;;;;;;34.40;23.47;;;;;;;2.46;92.02;99516.16;1409662;87;21865;-83
2021/12/29 07:59:41;;;;;;;32.30;20.20;;;;;;;2.46;92.02;99516.16;1409280;87;21727;-83
2021/12/29 08:02:16;;;;;;;32.03;21.70;;;;;;;2.59;92.28;99510.83;1408820;87;21761;-83
2021/12/29 08:04:44;;;;;;;28.60;19.80;;;;;;;2.59;92.28;99510.83;1408862;87;21886;-83
2021/12/29 08:07:11;;;;;;;34.50;21.03;;;;;;;2.66;92.16;99500.73;1409188;87;21695;-83
2021/12/29 08:09:38;;;;;;;35.27;21.77;;;;;;;2.74;92.08;99496.22;1409225;87;21654;-83
2021/12/29 08:12:07;;;;;;;42.40;25.30;;;;;;;2.74;92.08;99496.22;1409556;87;21880;-82
2021/12/29 08:14:35;;;;;;;56.00;31.93;;;;;;;2.87;92.04;99508.66;1409599;87;21848;-83
2021/12/29 08:17:03;;;;;;;47.30;28.90;;;;;;;2.91;91.95;99514.02;1392302;89;21916;-82
2021/12/29 08:19:30;;;;;;;41.03;25.60;;;;;;;3.00;92.07;99515.90;1410003;87;21735;-83
2021/12/29 08:21:57;;;;;;;42.17;24.60;;;;;;;3.03;91.84;99521.36;1409177;87;21993;-82
2021/12/29 08:24:25;;;;;;;33.07;21.77;;;;;;;3.03;91.84;99521.36;1408776;87;21767;-82
2021/12/29 08:26:53;;;;;;;34.83;21.63;;;;;;;3.06;91.59;99516.71;1409235;87;22028;-83
2021/12/29 08:29:21;;;;;;;46.70;27.20;;;;;;;3.06;91.59;99516.71;1409463;87;22006;-83
2021/12/29 08:31:48;;;;;;;34.00;22.73;;;;;;;3.08;91.22;99525.73;1409039;87;21828;-83
2021/12/29 08:34:15;;;;;;;34.20;22.30;;;;;;;3.04;91.66;99517.30;1409243;87;22029;-83
2021/12/29 08:36:43;;;;;;;35.27;20.53;;;;;;;2.97;91.49;99518.75;1408718;87;21941;-84
2021/12/29 08:39:14;;;;;;;60.17;34.37;;;;;;;2.97;91.49;99518.75;1424663;84;22161;-85
2021/12/29 08:41:43;;;;;;;47.25;28.42;;;;;;;2.95;91.59;99535.03;1406793;87;23316;-84
2021/12/29 08:44:10;;;;;;;32.30;21.10;;;;;;;2.88;91.69;99533.38;1406532;86;21374;-84
2021/12/29 08:46:39;;;;;;;39.13;23.73;;;;;;;2.67;92.36;99520.67;1401928;86;23398;-84
2021/12/29 08:49:07;;;;;;;36.43;21.97;;;;;;;2.62;92.39;99534.11;1382524;87;22081;-84
2021/12/29 08:51:34;;;;;;;40.80;22.73;;;;;;;2.62;92.39;99534.11;1382519;88;22124;-84
2021/12/29 08:54:02;;;;;;;44.43;25.53;;;;;;;2.61;92.89;99541.56;1382384;87;21768;-84
2021/12/29 08:56:30;;;;;;;45.53;26.20;;;;;;;2.55;93.13;99549.88;1382344;90;23113;-84
2021/12/29 08:58:57;;;;;;;46.30;26.50;;;;;;;2.55;93.13;99549.88;1382505;87;22289;-84
2021/12/29 09:01:26;;;;;;;49.33;28.53;;;;;;;2.42;93.75;99558.31;1393381;89;22038;-86
2021/12/29 09:03:54;;;;;;;42.70;25.77;;;;;;;2.42;93.75;99558.31;1382611;89;21936;-86
2021/12/29 09:06:22;;;;;;;46.93;27.83;;;;;;;2.34;94.51;99562.80;1382356;90;21721;-85
2021/12/29 09:08:49;;;;;;;45.53;26.00;;;;;;;2.18;95.28;99568.34;1382517;87;21871;-85
2021/12/29 09:11:17;;;;;;;44.83;26.17;;;;;;;2.18;95.28;99568.34;1382674;87;21734;-85
2021/12/29 09:13:44;;;;;;;46.33;26.97;;;;;;;2.08;95.54;99559.55;1382481;89;21465;-86
2021/12/29 09:16:16;;;;;;;52.03;29.10;;;;;;;1.95;96.58;99562.70;1382519;87;21683;-85
2021/12/29 09:18:43;;;;;;;49.97;27.77;;;;;;;1.95;96.58;99562.70;1382460;89;21656;-85
2021/12/29 09:21:14;;;;;;;52.30;25.97;;;;;;;1.94;96.38;99553.22;1382538;87;21677;-85
2021/12/29 09:24:27;;;;;;;44.77;24.43;;;;;;;1.89;96.46;99559.24;1383127;87;22768;-84
2021/12/29 09:26:55;;;;;;;45.10;25.83;;;;;;;1.88;96.82;99556.28;1389888;89;21531;-86
2021/12/29 09:29:22;;;;;;;41.67;24.23;;;;;;;1.87;96.63;99562.42;1383636;88;21329;-85
2021/12/29 09:31:50;;;;;;;48.50;26.70;;;;;;;1.85;96.82;99559.13;1400573;90;22474;-85
2021/12/29 09:34:23;;;;;;;49.07;24.90;;;;;;;1.87;96.61;99558.06;1381910;89;21788;-85
2021/12/29 09:36:50;;;;;;;47.93;26.97;;;;;;;1.87;96.69;99561.13;1379995;89;21605;-85
2021/12/29 09:39:18;;;;;;;42.10;24.27;;;;;;;1.87;96.57;99567.65;1396286;87;21742;-86
2021/12/29 09:41:45;;;;;;;56.57;30.83;;;;;;;1.83;96.76;99559.22;1388367;88;22681;-86
2021/12/29 09:44:14;;;;;;;49.47;27.53;;;;;;;1.84;96.62;99561.34;1388338;88;21496;-85
2021/12/29 09:46:42;;;;;;;47.13;28.93;;;;;;;1.86;96.50;99564.21;1388295;88;21558;-85
2021/12/29 09:49:10;;;;;;;50.73;27.37;;;;;;;1.86;96.55;99565.99;1388379;88;22929;-86
2021/12/29 09:51:38;;;;;;;68.67;34.60;;;;;;;1.85;96.54;99566.95;1388089;88;21790;-86
2021/12/29 09:54:05;;;;;;;46.23;26.23;;;;;;;1.83;96.82;99568.83;1388444;88;21608;-85
2021/12/29 09:56:33;;;;;;;59.17;31.73;;;;;;;1.83;96.82;99568.83;1388151;88;21701;-87
2021/12/29 09:59:00;;;;;;;55.67;31.33;;;;;;;1.86;96.39;99571.21;1387680;90;21650;-87
2021/12/29 10:01:28;;;;;;;52.37;31.00;;;;;;;1.88;96.51;99573.25;1401625;87;21730;-87
2021/12/29 10:03:56;;;;;;;55.40;29.70;;;;;;;1.88;96.10;99573.25;1401375;87;21579;-87
2021/12/29 10:06:29;;;;;;;45.97;28.77;;;;;;;1.86;96.34;99573.82;1401730;87;21600;-87
2021/12/29 10:08:57;;;;;;;54.27;31.77;;;;;;;1.88;96.33;99568.85;1398144;88;21563;-87
2021/12/29 10:11:36;;;;;;;44.33;27.07;;;;;;;1.89;96.13;99570.98;1381936;89;21646;-87
2021/12/29 10:14:10;;;;;;;45.10;25.97;;;;;;;1.92;95.96;99577.28;1402687;87;21695;-87
2021/12/29 10:16:40;;;;;;;45.37;25.47;;;;;;;1.89;96.09;99572.28;1405988;87;22707;-87
2021/12/29 10:19:14;;;;;;;44.23;26.03;;;;;;;1.87;95.89;99565.89;1409430;87;21867;-86
2021/12/29 10:21:46;;;;;;;44.57;25.30;;;;;;;1.83;95.75;99566.22;1410718;86;21716;-88
2021/12/29 10:24:19;;;;;;;;;;;;;;;1.80;96.00;99575.92;1411476;87;21596;-86
2021/12/29 10:26:49;;;;;;;44.30;28.63;;;;;;;1.79;96.06;99574.75;1407171;87;20326;-85
2021/12/29 10:29:20;;;;;;;40.67;24.90;;;;;;;1.79;96.06;99574.75;1386380;89;21593;-86
2021/12/29 10:31:58;;;;;;;46.08;27.00;;;;;;;1.84;95.94;99576.53;1407920;87;21741;-86
2021/12/29 10:34:29;;;;;;;43.47;23.70;;;;;;;1.89;95.93;99578.81;1388198;89;21382;-86
2021/12/29 10:37:04;;;;;;;47.35;27.27;;;;;;;1.93;95.71;99584.19;1409540;87;22429;-86
2021/12/29 10:39:37;;;;;;;48.53;27.77;;;;;;;1.90;95.58;99577.86;1409044;86;21479;-88
2021/12/29 10:42:11;;;;;;;47.17;26.97;;;;;;;1.85;95.57;99582.61;1385877;89;21709;-89
2021/12/29 10:44:47;;;;;;;41.23;25.67;;;;;;;1.84;95.48;99580.44;1408644;87;21428;-89
2021/12/29 10:47:31;;;;;;;43.67;26.37;;;;;;;1.82;95.71;99578.92;1384676;91;21704;-88
2021/12/29 10:50:09;;;;;;;42.90;24.70;;;;;;;1.82;95.70;99582.83;1411600;87;21657;-88
2021/12/29 10:52:44;;;;;;;42.50;25.80;;;;;;;1.76;95.73;99579.72;1405689;87;22416;-88
2021/12/29 10:55:31;;;;;;;43.83;26.33;;;;;;;1.76;96.28;99578.89;1404470;87;21478;-89
2021/12/29 10:58:14;;;;;;;49.43;30.00;;;;;;;1.77;96.05;99574.85;1413523;87;21682;-88
2021/12/29 11:00:58;;;;;;;54.13;29.43;;;;;;;1.82;95.87;99569.79;1383389;89;21627;-89
2021/12/29 11:03:28;;;;;;;46.23;28.53;;;;;;;1.79;95.75;99565.63;1385996;89;21803;-88
2021/12/29 11:05:59;;;;;;;42.43;27.37;;;;;;;1.82;96.00;99567.17;1408503;87;21563;-88
2021/12/29 11:08:47;;;;;;;42.40;26.12;;;;;;;1.83;95.69;99572.27;1386475;89;21671;-88
2021/12/29 11:11:15;;;;;;;44.60;26.33;;;;;;;1.84;95.52;99574.39;1383882;89;22105;-88
2021/12/29 11:13:42;;;;;;;39.53;23.60;;;;;;;1.86;95.50;99580.34;1407714;87;21788;-88
2021/12/29 11:16:19;;;;;;;46.77;28.50;;;;;;;1.87;95.28;99577.64;1405929;87;21676;-88
2021/12/29 11:18:52;;;;;;;42.70;26.50;;;;;;;1.84;94.93;99575.22;1404420;87;21591;-89
2021/12/29 11:21:30;;;;;;;36.60;23.00;;;;;;;1.78;94.87;99570.02;1415523;86;21718;-88
2021/12/29 11:24:23;;;;;;;34.83;22.13;;;;;;;1.79;94.91;99578.19;1414552;87;21660;-89
2021/12/29 11:26:51;;;;;;;44.33;27.33;;;;;;;1.83;94.74;99574.05;1426233;86;21593;-89
2021/12/29 11:29:23;;;;;;;41.67;24.03;;;;;;;1.73;94.43;99569.51;1425754;86;21580;-88
2021/12/29 11:32:04;;;;;;;36.60;23.03;;;;;;;1.71;94.46;99573.17;1425422;86;21489;-88
2021/12/29 11:34:31;;;;;;;41.10;24.75;;;;;;;1.70;94.61;99580.65;1426379;86;21762;-88
2021/12/29 11:37:13;;;;;;;40.43;25.07;;;;;;;1.70;94.55;99580.17;1426574;86;22238;-88
2021/12/29 11:39:48;;;;;;;43.23;25.70;;;;;;;1.70;94.54;99586.69;1395282;87;21625;-88
2021/12/29 11:42:17;;;;;;;41.67;25.40;;;;;;;1.71;94.53;99588.34;1419183;86;21697;-87